createdAt,value
2022-10-22T00:01:31.360Z,100374.84
2022-10-22T00:04:35.653Z,100387.38
2022-10-22T00:07:38.563Z,100390.09
2022-10-22T00:10:42.153Z,100384.72
2022-10-22T00:16:47.757Z,100380.28
2022-10-22T00:19:50.289Z,100374.94
2022-10-22T00:22:53.030Z,100368.69
2022-10-22T00:25:55.601Z,100372.25
2022-10-22T00:28:58.557Z,100363.31
2022-10-22T00:32:01.180Z,100353.50
2022-10-22T00:35:04.618Z,100355.31
2022-10-22T00:38:07.139Z,100347.25
2022-10-22T00:41:09.931Z,100335.63
2022-10-22T00:44:50.040Z,100315.97
2022-10-22T00:48:04.919Z,100321.34
2022-10-22T00:51:08.356Z,100317.78
2022-10-22T00:54:11.334Z,100320.47
2022-10-22T00:57:13.811Z,100335.66
2022-10-22T01:00:16.795Z,100329.38
2022-10-22T01:03:19.229Z,100339.22
2022-10-22T01:06:28.613Z,100341.03
2022-10-22T01:09:41.710Z,100327.63
2022-10-22T01:13:23.089Z,100325.84
2022-10-22T01:16:35.026Z,100316.91
2022-10-22T01:19:40.749Z,100310.66
2022-10-22T01:22:59.321Z,100325.84
2022-10-22T01:29:35.127Z,100329.47
2022-10-22T01:32:46.492Z,100334.84
2022-10-22T01:35:49.388Z,100342.00
2022-10-22T01:38:52.401Z,100341.13
2022-10-22T01:41:55.994Z,100340.22
2022-10-22T01:44:58.744Z,100349.13
2022-10-22T01:48:22.522Z,100336.63
2022-10-22T01:52:03.921Z,100347.38
2022-10-22T01:55:29.268Z,100324.16
2022-10-22T01:58:41.527Z,100327.72
2022-10-22T02:01:58.757Z,100316.13
2022-10-22T02:05:09.974Z,100313.47
2022-10-22T02:08:35.014Z,100301.87
2022-10-22T02:11:38.164Z,100287.59
2022-10-22T02:14:43.538Z,100276.88
2022-10-22T02:17:47.523Z,100263.50
2022-10-22T02:20:50.361Z,100257.25
2022-10-22T02:23:53.208Z,100254.56
2022-10-22T02:27:05.097Z,100250.09
2022-10-22T02:33:28.983Z,100258.13
2022-10-22T02:36:32.258Z,100272.41
2022-10-22T02:39:35.921Z,100277.78
2022-10-22T02:42:39.562Z,100279.56
2022-10-22T02:45:42.186Z,100283.12
2022-10-22T02:48:44.860Z,100286.69
2022-10-22T02:51:47.340Z,100286.69
2022-10-22T02:54:50.389Z,100285.81
2022-10-22T02:57:52.972Z,100292.06
2022-10-22T03:00:55.715Z,100285.81
2022-10-22T03:03:58.159Z,100274.19
2022-10-22T03:07:00.847Z,100256.34
2022-10-22T03:10:04.046Z,100254.56
2022-10-22T03:13:06.826Z,100244.72
2022-10-22T03:16:09.356Z,100245.62
2022-10-22T03:19:12.356Z,100267.94
2022-10-22T03:22:25.000Z,100267.94
2022-10-22T03:25:28.554Z,100268.84
2022-10-22T03:28:31.615Z,100276.00
2022-10-22T03:31:34.355Z,100277.78
2022-10-22T03:34:36.957Z,100286.69
2022-10-22T03:37:40.195Z,100285.81
2022-10-22T03:40:43.886Z,100276.88
2022-10-22T03:43:50.121Z,100271.53
2022-10-22T03:46:52.576Z,100279.56
2022-10-22T03:49:55.324Z,100289.38
2022-10-22T03:52:58.277Z,100278.66
2022-10-22T03:56:01.050Z,100276.00
2022-10-22T03:59:03.646Z,100273.31
2022-10-22T04:02:06.477Z,100264.37
2022-10-22T04:05:09.372Z,100268.84
2022-10-22T04:08:15.566Z,100262.59
2022-10-22T04:11:18.378Z,100259.91
2022-10-22T04:14:20.894Z,100251.88
2022-10-22T04:17:23.653Z,100249.22
2022-10-22T04:20:26.336Z,100251.88
2022-10-22T04:23:30.695Z,100241.19
2022-10-22T04:26:33.198Z,100224.22
2022-10-22T04:29:35.956Z,100226.03
2022-10-22T04:32:38.393Z,100219.78
2022-10-22T04:35:41.145Z,100208.19
2022-10-22T04:38:45.138Z,100214.44
2022-10-22T04:41:47.865Z,100218.00
2022-10-22T04:44:50.321Z,100206.41
2022-10-22T04:47:53.056Z,100168.06
2022-10-22T04:50:57.779Z,100198.38
2022-10-22T04:54:00.593Z,100211.75
2022-10-22T04:57:03.217Z,100230.50
2022-10-22T05:00:06.655Z,100237.63
2022-10-22T05:03:09.082Z,100244.75
2022-10-22T05:09:21.137Z,100254.56
2022-10-22T05:12:24.092Z,100267.06
2022-10-22T05:15:26.554Z,100288.50
2022-10-22T05:18:29.317Z,100281.34
2022-10-22T05:21:31.859Z,100278.69
2022-10-22T05:24:37.177Z,100284.03
2022-10-22T05:27:39.948Z,100288.47
2022-10-22T05:30:42.959Z,100279.56
2022-10-22T05:33:45.762Z,100280.47
2022-10-22T05:36:48.535Z,100279.56
2022-10-22T05:40:01.677Z,100272.41
2022-10-22T05:43:13.756Z,100266.19
2022-10-22T05:46:22.725Z,100267.97
2022-10-22T05:49:25.836Z,100271.53
2022-10-22T05:52:28.303Z,100278.66
2022-10-22T05:55:31.168Z,100269.75
2022-10-22T05:58:34.681Z,100292.03
2022-10-22T06:01:40.110Z,100293.84
2022-10-22T06:04:42.840Z,100285.81
2022-10-22T06:07:45.396Z,100285.81
2022-10-22T06:10:48.123Z,100274.19
2022-10-22T06:13:51.056Z,100275.09
2022-10-22T06:16:54.334Z,100263.47
2022-10-22T06:19:56.850Z,100268.78
2022-10-22T06:22:59.614Z,100271.47
2022-10-22T06:26:02.281Z,100269.66
2022-10-22T06:29:05.400Z,100257.13
2022-10-22T06:32:07.836Z,100253.53
2022-10-22T06:35:10.610Z,100257.91
2022-10-22T06:38:13.043Z,100273.00
2022-10-22T06:41:16.501Z,100256.81
2022-10-22T06:44:19.844Z,100270.06
2022-10-22T06:47:22.572Z,100257.41
2022-10-22T06:50:25.008Z,100251.34
2022-10-22T06:53:27.814Z,100238.16
2022-10-22T06:56:30.318Z,100242.81
2022-10-22T06:59:33.410Z,100234.00
2022-10-22T07:02:36.152Z,100245.09
2022-10-22T07:05:38.953Z,100262.25
2022-10-22T07:08:42.477Z,100269.66
2022-10-22T07:11:46.103Z,100267.50
2022-10-22T07:14:49.256Z,100265.78
2022-10-22T07:17:51.991Z,100274.47
2022-10-22T07:20:54.424Z,100272.69
2022-10-22T07:23:57.731Z,100290.63
2022-10-22T07:27:00.261Z,100293.50
2022-10-22T07:30:04.139Z,100284.81
2022-10-22T07:33:06.678Z,100283.59
2022-10-22T07:36:12.104Z,100288.63
2022-10-22T07:39:14.808Z,100302.56
2022-10-22T07:42:17.573Z,100315.19
2022-10-22T07:45:20.097Z,100321.41
2022-10-22T07:48:23.401Z,100325.81
2022-10-22T07:51:25.899Z,100329.56
2022-10-22T07:54:28.733Z,100352.28
2022-10-22T07:57:31.966Z,100358.91
2022-10-22T08:00:34.797Z,100360.09
2022-10-22T08:03:37.687Z,100359.44
2022-10-22T08:06:43.395Z,100355.91
2022-10-22T08:09:48.459Z,100356.25
2022-10-22T08:12:50.893Z,100353.41
2022-10-22T08:15:57.253Z,100351.53
2022-10-22T08:19:00.269Z,100365.34
2022-10-22T08:22:03.043Z,100367.75
2022-10-22T08:25:06.087Z,100363.53
2022-10-22T08:28:08.796Z,100372.78
2022-10-22T08:31:11.678Z,100377.16
2022-10-22T08:34:14.403Z,100386.31
2022-10-22T08:37:17.821Z,100376.34
2022-10-22T08:40:26.470Z,100371.75
2022-10-22T08:43:34.853Z,100372.81
2022-10-22T08:47:00.012Z,100357.56
2022-10-22T08:50:03.221Z,100375.91
2022-10-22T08:53:11.448Z,100370.41
2022-10-22T08:56:15.063Z,100375.94
2022-10-22T08:59:24.022Z,100403.91
2022-10-22T09:02:35.440Z,100414.53
2022-10-22T09:06:03.430Z,100419.09
2022-10-22T09:09:13.261Z,100419.91
2022-10-22T09:12:20.210Z,100413.56
2022-10-22T09:15:23.105Z,100417.97
2022-10-22T09:18:50.932Z,100409.87
2022-10-22T09:21:56.819Z,100412.06
2022-10-22T09:25:10.119Z,100415.19
2022-10-22T09:28:12.622Z,100418.66
2022-10-22T09:31:15.521Z,100416.94
2022-10-22T09:34:21.643Z,100434.81
2022-10-22T09:37:29.239Z,100446.63
2022-10-22T09:40:31.692Z,100439.47
2022-10-22T09:43:36.181Z,100427.09
2022-10-22T09:46:45.491Z,100439.00
2022-10-22T09:49:48.211Z,100422.75
2022-10-22T09:53:26.028Z,100424.72
2022-10-22T09:56:40.977Z,100434.59
2022-10-22T09:59:44.862Z,100443.38
2022-10-22T10:02:47.623Z,100446.87
2022-10-22T10:05:54.417Z,100432.56
2022-10-22T10:08:57.436Z,100393.91
2022-10-22T10:12:09.686Z,100408.09
2022-10-22T10:15:15.096Z,100413.78
2022-10-22T10:18:51.472Z,100417.97
2022-10-22T10:22:15.891Z,100422.66
2022-10-22T10:25:37.897Z,100444.03
2022-10-22T10:28:55.866Z,100443.13
2022-10-22T10:32:22.405Z,100439.63
2022-10-22T10:35:28.236Z,100453.09
2022-10-22T10:38:58.358Z,100461.22
2022-10-22T10:42:15.966Z,100455.91
2022-10-22T10:45:43.566Z,100450.66
2022-10-22T10:48:56.958Z,100444.31
2022-10-22T10:52:18.814Z,100441.63
2022-10-22T10:55:37.411Z,100435.34
2022-10-22T10:59:25.685Z,100429.00
2022-10-22T11:02:28.059Z,100452.41
2022-10-22T11:06:00.480Z,100449.69
2022-10-22T11:09:11.688Z,100438.06
2022-10-22T11:12:23.613Z,100434.47
2022-10-22T11:15:37.227Z,100434.44
2022-10-22T11:18:48.455Z,100429.87
2022-10-22T11:22:07.428Z,100432.53
2022-10-22T11:25:12.762Z,100425.34
2022-10-22T11:28:21.480Z,100418.00
2022-10-22T11:31:25.843Z,100405.28
2022-10-22T11:35:01.813Z,100408.88
2022-10-22T11:38:07.022Z,100412.00
2022-10-22T11:41:14.630Z,100412.88
2022-10-22T11:44:23.616Z,100408.41
2022-10-22T11:47:42.854Z,100403.53
2022-10-22T11:50:55.124Z,100409.03
2022-10-22T11:53:58.542Z,100409.28
2022-10-22T11:57:16.333Z,100403.69
2022-10-22T12:00:40.256Z,100406.59
2022-10-22T12:03:46.506Z,100407.31
2022-10-22T12:07:02.020Z,100404.53
2022-10-22T12:10:06.371Z,100399.91
2022-10-22T12:13:14.458Z,100416.13
2022-10-22T12:16:27.221Z,100415.28
2022-10-22T12:19:43.656Z,100411.81
2022-10-22T12:22:46.389Z,100413.59
2022-10-22T12:25:48.844Z,100409.91
2022-10-22T12:28:51.742Z,100417.88
2022-10-22T12:31:55.071Z,100413.87
2022-10-22T12:34:57.812Z,100417.38
2022-10-22T12:38:13.938Z,100420.81
2022-10-22T12:41:16.680Z,100419.94
2022-10-22T12:44:19.281Z,100415.63
2022-10-22T12:47:22.203Z,100421.16
2022-10-22T12:50:38.299Z,100424.84
2022-10-22T12:53:47.639Z,100419.34
2022-10-22T12:56:50.512Z,100416.84
2022-10-22T12:59:53.337Z,100415.88
2022-10-22T13:02:57.661Z,100420.91
2022-10-22T13:06:18.766Z,100422.53
2022-10-22T13:09:25.412Z,100412.66
2022-10-22T13:12:37.273Z,100414.53
2022-10-22T13:15:40.071Z,100407.56
2022-10-22T13:18:43.983Z,100409.16
2022-10-22T13:21:48.880Z,100413.59
2022-10-22T13:24:51.821Z,100410.16
2022-10-22T13:27:55.372Z,100416.56
2022-10-22T13:31:08.510Z,100419.28
2022-10-22T13:34:17.239Z,100424.78
2022-10-22T13:37:20.061Z,100427.56
2022-10-22T13:40:22.574Z,100426.69
2022-10-22T13:43:25.514Z,100410.41
2022-10-22T13:46:29.197Z,100430.72
2022-10-22T13:49:31.984Z,100425.22
2022-10-22T13:52:38.736Z,100433.53
2022-10-22T13:55:41.646Z,100429.91
2022-10-22T13:58:45.698Z,100421.84
2022-10-22T14:01:48.471Z,100425.59
2022-10-22T14:04:51.694Z,100421.28
2022-10-22T14:07:54.178Z,100410.53
2022-10-22T14:10:57.022Z,100416.03
2022-10-22T14:13:59.520Z,100412.44
2022-10-22T14:17:02.478Z,100407.09
2022-10-22T14:20:05.218Z,100408.94
2022-10-22T14:23:20.499Z,100399.00
2022-10-22T14:26:31.291Z,100406.22
2022-10-22T14:29:33.984Z,100407.09
2022-10-22T14:32:36.835Z,100418.75
2022-10-22T14:35:39.588Z,100416.97
2022-10-22T14:38:43.081Z,100436.72
2022-10-22T14:41:45.845Z,100434.09
2022-10-22T14:44:48.313Z,100433.19
2022-10-22T14:47:51.841Z,100439.56
2022-10-22T14:50:54.804Z,100437.88
2022-10-22T14:53:57.577Z,100441.53
2022-10-22T14:57:00.056Z,100443.41
2022-10-22T15:00:04.103Z,100447.19
2022-10-22T15:03:06.880Z,100446.34
2022-10-22T15:06:11.312Z,100435.53
2022-10-22T15:09:14.554Z,100447.31
2022-10-22T15:12:17.318Z,100442.88
2022-10-22T15:15:22.641Z,100431.22
2022-10-22T15:18:26.368Z,100433.94
2022-10-22T15:21:28.895Z,100440.28
2022-10-22T15:24:32.311Z,100451.16
2022-10-22T15:27:35.429Z,100453.00
2022-10-22T15:30:38.450Z,100454.00
2022-10-22T15:33:42.430Z,100472.03
2022-10-22T15:36:45.215Z,100469.41
2022-10-22T15:39:47.946Z,100476.72
2022-10-22T15:42:50.778Z,100479.44
2022-10-22T15:46:15.337Z,100479.47
2022-10-22T15:49:18.402Z,100478.59
2022-10-22T15:52:23.783Z,100455.44
2022-10-22T15:55:26.736Z,100480.47
2022-10-22T15:58:29.214Z,100475.13
2022-10-22T16:01:34.134Z,100467.97
2022-10-22T16:04:38.045Z,100469.84
2022-10-22T16:07:40.819Z,100477.94
2022-10-22T16:10:48.545Z,100489.66
2022-10-22T16:13:56.520Z,100480.75
2022-10-22T16:16:59.755Z,100489.75
2022-10-22T16:20:02.976Z,100494.28
2022-10-22T16:23:06.048Z,100499.69
2022-10-22T16:26:08.703Z,100508.69
2022-10-22T16:29:12.645Z,100498.88
2022-10-22T16:32:16.503Z,100496.28
2022-10-22T16:35:19.238Z,100528.50
2022-10-22T16:38:21.705Z,100514.16
2022-10-22T16:41:25.914Z,100528.56
2022-10-22T16:44:29.322Z,100523.19
2022-10-22T16:47:32.036Z,100519.63
2022-10-22T16:50:34.643Z,100530.44
2022-10-22T16:53:37.698Z,100533.13
2022-10-22T16:56:40.227Z,100547.53
2022-10-22T16:59:43.220Z,100550.25
2022-10-22T17:02:45.786Z,100552.09
2022-10-22T17:05:49.199Z,100554.81
2022-10-22T17:08:52.114Z,100554.88
2022-10-22T17:11:55.186Z,100564.78
2022-10-22T17:14:57.635Z,100569.34
2022-10-22T17:18:00.854Z,100574.75
2022-10-22T17:21:07.942Z,100570.31
2022-10-22T17:24:11.023Z,100586.44
2022-10-22T17:27:14.159Z,100590.06
2022-10-22T17:30:22.018Z,100582.00
2022-10-22T17:33:27.648Z,100587.44
2022-10-22T17:36:34.819Z,100579.47
2022-10-22T17:39:38.659Z,100589.37
2022-10-22T17:42:43.006Z,100598.34
2022-10-22T17:45:46.006Z,100609.13
2022-10-22T17:48:54.267Z,100614.53
2022-10-22T17:51:57.097Z,100607.44
2022-10-22T17:55:00.013Z,100610.13
2022-10-22T17:58:02.751Z,100616.34
2022-10-22T18:01:05.944Z,100607.47
2022-10-22T18:04:10.941Z,100620.88
2022-10-22T18:07:13.578Z,100617.28
2022-10-22T18:10:16.448Z,100620.00
2022-10-22T18:13:19.179Z,100623.56
2022-10-22T18:16:22.662Z,100623.56
2022-10-22T18:19:25.303Z,100620.88
2022-10-22T18:22:28.486Z,100620.88
2022-10-22T18:25:31.831Z,100618.22
2022-10-22T18:28:34.947Z,100621.78
2022-10-22T18:31:37.663Z,100619.97
2022-10-22T18:34:40.550Z,100623.56
2022-10-22T18:37:43.466Z,100635.19
2022-10-22T18:40:46.892Z,100633.41
2022-10-22T18:43:51.282Z,100637.88
2022-10-22T18:46:54.221Z,100633.41
2022-10-22T18:49:57.022Z,100642.38
2022-10-22T18:53:00.385Z,100643.25
2022-10-22T18:56:07.724Z,100649.53
2022-10-22T18:59:17.436Z,100650.44
2022-10-22T19:02:20.249Z,100646.84
2022-10-22T19:05:23.334Z,100655.78
2022-10-22T19:08:26.076Z,100661.16
2022-10-22T19:11:29.045Z,100657.53
2022-10-22T19:14:32.319Z,100658.41
2022-10-22T19:17:35.181Z,100658.41
2022-10-22T19:20:37.945Z,100668.25
2022-10-22T19:23:41.228Z,100677.19
2022-10-22T19:26:44.446Z,100673.59
2022-10-22T19:29:49.490Z,100683.44
2022-10-22T19:32:52.098Z,100674.50
2022-10-22T19:35:54.946Z,100676.28
2022-10-22T19:38:58.247Z,100683.47
2022-10-22T19:42:01.705Z,100693.31
2022-10-22T19:45:05.417Z,100696.00
2022-10-22T19:48:08.234Z,100703.16
2022-10-22T19:51:15.413Z,100717.50
2022-10-22T19:54:21.205Z,100712.16
2022-10-22T19:57:23.837Z,100706.81
2022-10-22T20:00:28.414Z,100709.50
2022-10-22T20:03:31.466Z,100721.13
2022-10-22T20:06:33.983Z,100721.13
2022-10-22T20:09:36.945Z,100720.22
2022-10-22T20:12:39.654Z,100713.03
2022-10-22T20:15:42.497Z,100719.28
2022-10-22T20:18:45.306Z,100718.37
2022-10-22T20:21:50.913Z,100721.03
2022-10-22T20:24:54.484Z,100715.66
2022-10-22T20:27:58.434Z,100721.91
2022-10-22T20:31:01.027Z,100733.53
2022-10-22T20:34:04.235Z,100735.28
2022-10-22T20:37:06.689Z,100729.00
2022-10-22T20:40:11.135Z,100729.00
2022-10-22T20:43:13.647Z,100729.00
2022-10-22T20:46:24.494Z,100737.03
2022-10-22T20:49:26.970Z,100739.72
2022-10-22T20:52:29.962Z,100724.50
2022-10-22T20:55:32.657Z,100741.50
2022-10-22T20:58:35.855Z,100739.69
2022-10-22T21:01:40.273Z,100742.37
2022-10-22T21:04:45.582Z,100751.28
2022-10-22T21:07:48.915Z,100745.03
2022-10-22T21:10:51.686Z,100755.72
2022-10-22T21:13:54.196Z,100742.31
2022-10-22T21:16:57.080Z,100747.66
2022-10-22T21:19:59.610Z,100751.22
2022-10-22T21:23:02.348Z,100753.00
2022-10-22T21:26:05.580Z,100755.69
2022-10-22T21:29:09.037Z,100753.03
2022-10-22T21:32:11.485Z,100759.28
2022-10-22T21:35:14.274Z,100758.31
2022-10-22T21:38:16.781Z,100759.19
2022-10-22T21:41:21.611Z,100755.59
2022-10-22T21:44:24.036Z,100754.69
2022-10-22T21:47:26.771Z,100757.38
2022-10-22T21:50:30.049Z,100752.84
2022-10-22T21:53:32.756Z,100756.41
2022-10-22T21:56:36.171Z,100760.84
2022-10-22T21:59:38.932Z,100773.31
2022-10-22T22:02:41.526Z,100764.34
2022-10-22T22:05:44.422Z,100768.81
2022-10-22T22:08:47.189Z,100767.91
2022-10-22T22:11:49.982Z,100768.72
2022-10-22T22:14:52.465Z,100767.78
2022-10-22T22:17:55.226Z,100769.81
2022-10-22T22:20:58.607Z,100770.97
2022-10-22T22:24:01.519Z,100766.53
2022-10-22T22:27:04.175Z,100770.13
2022-10-22T22:30:07.685Z,100772.84
2022-10-22T22:33:10.483Z,100772.84
2022-10-22T22:36:13.291Z,100767.44
2022-10-22T22:39:22.578Z,100765.66
2022-10-22T22:42:25.306Z,100762.13
2022-10-22T22:45:27.779Z,100763.91
2022-10-22T22:48:30.756Z,100768.38
2022-10-22T22:51:33.272Z,100759.44
2022-10-22T22:54:36.004Z,100761.22
2022-10-22T22:57:38.521Z,100771.91
2022-10-22T23:03:58.761Z,100768.38
2022-10-22T23:07:01.506Z,100775.41
2022-10-22T23:10:04.135Z,100777.97
2022-10-22T23:13:06.873Z,100771.63
2022-10-22T23:16:13.447Z,100776.00
2022-10-22T23:19:18.655Z,100775.84
2022-10-22T23:22:21.156Z,100769.44
2022-10-22T23:25:23.942Z,100773.84
2022-10-22T23:28:26.665Z,100772.91
2022-10-22T23:31:29.852Z,100769.31
2022-10-22T23:34:32.723Z,100768.44
2022-10-22T23:37:35.512Z,100772.06
2022-10-22T23:40:38.375Z,100783.63
2022-10-22T23:43:41.173Z,100785.44
2022-10-22T23:46:43.856Z,100799.56
2022-10-22T23:49:46.824Z,100794.19
2022-10-22T23:52:49.314Z,100800.41
2022-10-22T23:55:52.090Z,100815.47
2022-10-22T23:58:54.845Z,100821.62
